createdAt,value
2018-04-22T00:00:14.490Z,65.44
2018-04-22T00:02:43.612Z,65.65
2018-04-22T00:05:12.741Z,65.75
2018-04-22T00:07:42.620Z,65.47
2018-04-22T00:10:11.717Z,65.29
2018-04-22T00:12:40.853Z,64.72
2018-04-22T00:15:10.172Z,64.50
2018-04-22T00:17:39.293Z,64.59
2018-04-22T00:20:09.266Z,64.39
2018-04-22T00:22:38.637Z,63.83
2018-04-22T00:25:08.536Z,63.19
2018-04-22T00:27:37.658Z,62.80
2018-04-22T00:30:06.784Z,62.36
2018-04-22T00:32:35.906Z,62.21
2018-04-22T00:35:05.061Z,62.26
2018-04-22T00:37:34.288Z,62.16
2018-04-22T00:40:03.401Z,62.44
2018-04-22T00:42:32.528Z,62.48
2018-04-22T00:45:01.775Z,62.12
2018-04-22T00:47:30.905Z,62.38
2018-04-22T00:50:00.060Z,62.91
2018-04-22T00:52:29.176Z,62.79
2018-04-22T00:54:58.336Z,62.48
2018-04-22T00:57:27.452Z,61.91
2018-04-22T00:59:56.563Z,61.05
2018-04-22T01:02:25.688Z,60.70
2018-04-22T01:04:54.810Z,60.06
2018-04-22T01:07:24.673Z,60.17
2018-04-22T01:09:53.793Z,60.17
2018-04-22T01:12:22.911Z,60.20
2018-04-22T01:14:52.046Z,60.50
2018-04-22T01:17:21.194Z,60.93
2018-04-22T01:19:50.324Z,61.72
2018-04-22T01:22:19.429Z,61.74
2018-04-22T01:24:48.569Z,61.96
2018-04-22T01:27:18.452Z,61.92
2018-04-22T01:29:47.589Z,62.10
2018-04-22T01:32:16.725Z,62.07
2018-04-22T01:34:46.586Z,61.80
2018-04-22T01:37:15.733Z,61.83
2018-04-22T01:39:44.836Z,61.82
2018-04-22T01:42:13.959Z,61.93
2018-04-22T01:44:43.060Z,61.98
2018-04-22T01:47:12.176Z,62.28
2018-04-22T01:49:42.138Z,61.49
2018-04-22T01:52:11.281Z,61.92
2018-04-22T01:54:40.400Z,62.63
2018-04-22T01:57:10.771Z,62.98
2018-04-22T01:59:39.912Z,63.10
2018-04-22T02:02:09.013Z,63.38
2018-04-22T02:04:38.147Z,63.79
2018-04-22T02:07:08.027Z,63.47
2018-04-22T02:09:37.191Z,62.96
2018-04-22T02:12:06.348Z,62.73
2018-04-22T02:14:36.250Z,62.45
2018-04-22T02:17:05.345Z,62.33
2018-04-22T02:19:35.244Z,62.50
2018-04-22T02:22:04.449Z,62.32
2018-04-22T02:24:33.620Z,62.62
2018-04-22T02:27:02.753Z,62.63
2018-04-22T02:29:31.880Z,62.76
2018-04-22T02:32:00.984Z,62.62
2018-04-22T02:34:30.100Z,63.24
2018-04-22T02:36:59.489Z,63.88
2018-04-22T02:39:28.627Z,63.71
2018-04-22T02:41:57.745Z,63.59
2018-04-22T02:44:27.620Z,63.57
2018-04-22T02:46:56.740Z,63.81
2018-04-22T02:49:25.843Z,63.84
2018-04-22T02:51:55.750Z,65.42
2018-04-22T02:54:24.860Z,65.69
2018-04-22T02:56:54.773Z,66.23
2018-04-22T02:59:23.876Z,66.41
2018-04-22T03:01:52.995Z,66.03
2018-04-22T03:04:22.115Z,66.15
2018-04-22T03:06:51.230Z,65.96
2018-04-22T03:09:20.348Z,66.13
2018-04-22T03:11:50.227Z,66.39
2018-04-22T03:14:19.333Z,66.30
2018-04-22T03:16:48.459Z,65.55
2018-04-22T03:19:18.325Z,64.99
2018-04-22T03:21:48.250Z,64.08
2018-04-22T03:24:17.349Z,64.48
2018-04-22T03:26:46.496Z,63.82
2018-04-22T03:29:16.377Z,63.83
2018-04-22T03:31:45.817Z,62.71
2018-04-22T03:34:14.930Z,61.66
2018-04-22T03:36:44.365Z,61.30
2018-04-22T03:39:14.252Z,61.09
2018-04-22T03:41:43.395Z,60.69
2018-04-22T03:44:12.540Z,60.64
2018-04-22T03:46:41.644Z,60.43
2018-04-22T03:49:10.800Z,60.68
2018-04-22T03:51:39.917Z,60.96
2018-04-22T03:54:09.050Z,61.02
2018-04-22T03:56:38.145Z,61.54
2018-04-22T03:59:07.271Z,61.85
2018-04-22T04:01:36.370Z,61.72
2018-04-22T04:04:06.203Z,62.56
2018-04-22T04:06:36.088Z,63.03
2018-04-22T04:09:05.933Z,63.60
2018-04-22T04:11:35.822Z,63.03
2018-04-22T04:14:04.976Z,63.34
2018-04-22T04:16:34.129Z,63.76
2018-04-22T04:19:20.906Z,63.63
2018-04-22T04:22:07.716Z,64.57
2018-04-22T04:24:54.470Z,65.79
2018-04-22T04:40:51.962Z,65.80
2018-04-22T04:43:21.086Z,66.13
2018-04-22T04:45:50.530Z,66.04
2018-04-22T04:48:19.645Z,65.69
2018-04-22T04:50:48.758Z,65.62
2018-04-22T04:53:17.864Z,64.43
2018-04-22T04:55:46.995Z,64.99
2018-04-22T04:58:16.160Z,65.65
2018-04-22T05:00:45.275Z,65.99
2018-04-22T05:03:14.412Z,66.09
2018-04-22T05:05:43.517Z,66.20
2018-04-22T05:08:12.638Z,66.37
2018-04-22T05:10:41.897Z,66.90
2018-04-22T05:13:11.018Z,67.09
2018-04-22T05:15:40.140Z,66.83
2018-04-22T05:18:09.277Z,67.04
2018-04-22T05:20:39.205Z,66.88
2018-04-22T05:23:08.338Z,66.82
2018-04-22T05:25:37.563Z,66.61
2018-04-22T05:28:08.509Z,66.38
2018-04-22T05:30:37.641Z,65.74
2018-04-22T05:33:06.747Z,65.55
2018-04-22T05:35:35.877Z,65.91
2018-04-22T05:38:04.977Z,65.47
2018-04-22T05:40:34.416Z,64.36
2018-04-22T05:43:04.296Z,64.07
2018-04-22T05:45:33.442Z,64.17
2018-04-22T05:48:03.327Z,64.11
2018-04-22T05:50:32.469Z,63.72
2018-04-22T05:53:01.603Z,63.46
2018-04-22T05:55:30.945Z,63.20
2018-04-22T05:58:00.077Z,63.00
2018-04-22T06:00:29.168Z,62.62
2018-04-22T06:02:58.363Z,62.81
2018-04-22T06:05:27.485Z,63.05
2018-04-22T06:07:56.892Z,62.90
2018-04-22T06:10:26.022Z,62.58
2018-04-22T06:12:55.908Z,61.94
2018-04-22T06:15:25.069Z,61.72
2018-04-22T06:17:54.284Z,61.34
2018-04-22T06:20:23.417Z,61.57
2018-04-22T06:22:52.579Z,61.50
2018-04-22T06:25:21.652Z,61.51
2018-04-22T06:27:50.752Z,61.16
2018-04-22T06:30:19.889Z,60.26
2018-04-22T06:32:49.012Z,59.88
2018-04-22T06:35:18.889Z,59.57
2018-04-22T06:37:48.003Z,59.11
2018-04-22T06:40:17.154Z,58.81
2018-04-22T06:42:46.241Z,58.78
2018-04-22T06:45:16.132Z,58.78
2018-04-22T06:47:45.249Z,58.64
2018-04-22T06:50:14.389Z,58.97
2018-04-22T06:52:43.545Z,58.74
2018-04-22T06:55:12.690Z,58.42
2018-04-22T06:57:41.816Z,58.17
2018-04-22T07:00:11.682Z,58.56
2018-04-22T07:02:40.832Z,58.47
2018-04-22T07:05:10.904Z,58.11
2018-04-22T07:07:40.039Z,57.90
2018-04-22T07:10:11.208Z,58.14
2018-04-22T07:12:40.424Z,58.19
2018-04-22T07:15:11.551Z,58.20
2018-04-22T07:17:40.714Z,58.63
2018-04-22T07:20:11.396Z,58.43
2018-04-22T07:22:40.535Z,58.51
2018-04-22T07:25:10.909Z,58.55
2018-04-22T07:27:40.042Z,58.37
2018-04-22T07:30:09.175Z,58.30
2018-04-22T07:32:38.525Z,57.68
2018-04-22T07:35:07.672Z,58.01
2018-04-22T07:37:36.772Z,57.64
2018-04-22T07:40:06.672Z,56.80
2018-04-22T07:42:35.819Z,56.89
2018-04-22T07:45:05.955Z,56.45
2018-04-22T07:47:35.083Z,56.65
2018-04-22T07:50:04.208Z,56.16
2018-04-22T07:52:33.340Z,56.35
2018-04-22T07:55:02.485Z,56.09
2018-04-22T07:57:31.581Z,56.34
2018-04-22T08:00:02.150Z,56.45
2018-04-22T08:02:31.272Z,56.58
2018-04-22T08:05:00.401Z,55.65
2018-04-22T08:07:29.525Z,55.52
2018-04-22T08:09:58.677Z,55.69
2018-04-22T08:12:27.846Z,54.87
2018-04-22T08:14:57.705Z,53.47
2018-04-22T08:17:27.636Z,53.69
2018-04-22T08:19:57.519Z,53.22
2018-04-22T08:22:26.659Z,52.05
2018-04-22T08:24:55.782Z,54.29
2018-04-22T08:27:24.891Z,52.65
2018-04-22T08:29:54.008Z,52.57
2018-04-22T08:32:23.114Z,51.71
2018-04-22T08:34:53.023Z,51.26
2018-04-22T08:37:22.157Z,52.49
2018-04-22T08:39:52.057Z,50.42
2018-04-22T08:42:21.180Z,50.26
2018-04-22T08:44:50.324Z,50.20
2018-04-22T08:47:19.439Z,48.86
2018-04-22T08:49:49.337Z,49.60
2018-04-22T08:52:18.471Z,48.73
2018-04-22T08:54:47.618Z,49.28
2018-04-22T08:57:17.606Z,48.61
2018-04-22T08:59:47.515Z,47.27
2018-04-22T09:02:16.668Z,48.55
2018-04-22T09:04:46.601Z,47.13
2018-04-22T09:07:16.516Z,47.41
2018-04-22T09:09:46.424Z,46.65
2018-04-22T09:12:15.535Z,46.86
2018-04-22T09:14:46.942Z,46.95
2018-04-22T09:17:16.059Z,47.21
2018-04-22T09:19:45.185Z,47.09
2018-04-22T09:22:14.314Z,46.72
2018-04-22T09:24:43.475Z,47.26
2018-04-22T09:27:13.347Z,45.44
2018-04-22T09:29:42.531Z,45.89
2018-04-22T09:32:11.681Z,46.38
2018-04-22T09:34:40.821Z,46.14
2018-04-22T09:37:11.194Z,47.16
2018-04-22T09:39:40.305Z,45.55
2018-04-22T09:42:09.448Z,46.11
2018-04-22T09:44:38.605Z,43.93
2018-04-22T09:47:08.397Z,46.54
2018-04-22T09:49:38.288Z,44.40
2018-04-22T09:52:08.210Z,44.68
2018-04-22T09:54:38.119Z,46.24
2018-04-22T09:57:07.240Z,46.20
2018-04-22T09:59:36.357Z,44.88
2018-04-22T10:02:05.522Z,44.06
2018-04-22T10:04:40.127Z,44.10
2018-04-22T10:07:12.011Z,42.74
2018-04-22T10:09:41.905Z,43.46
2018-04-22T10:12:13.268Z,42.82
2018-04-22T10:14:43.091Z,42.46
2018-04-22T10:17:12.244Z,42.15
2018-04-22T10:19:41.414Z,42.95
2018-04-22T10:22:11.637Z,44.04
2018-04-22T10:24:41.045Z,43.54
2018-04-22T10:27:11.432Z,43.33
2018-04-22T10:29:40.537Z,42.75
2018-04-22T10:32:11.684Z,43.05
2018-04-22T10:34:41.581Z,41.77
2018-04-22T10:37:12.325Z,40.73
2018-04-22T10:39:42.209Z,41.78
2018-04-22T10:42:12.220Z,41.39
2018-04-22T10:44:41.366Z,41.63
2018-04-22T10:47:11.509Z,41.17
2018-04-22T10:49:40.640Z,40.30
2018-04-22T10:52:10.000Z,40.83
2018-04-22T10:54:39.893Z,40.19
2018-04-22T10:57:09.792Z,40.71
2018-04-22T10:59:38.892Z,40.21
2018-04-22T11:02:08.817Z,41.21
2018-04-22T11:04:37.991Z,40.81
2018-04-22T11:07:07.097Z,39.43
2018-04-22T11:09:36.198Z,38.71
2018-04-22T11:12:06.101Z,38.94
2018-04-22T11:14:35.231Z,39.96
2018-04-22T11:17:04.649Z,38.86
2018-04-22T11:19:33.815Z,38.81
2018-04-22T11:22:02.960Z,38.70
2018-04-22T11:24:32.119Z,38.24
2018-04-22T11:27:02.025Z,37.97
2018-04-22T11:29:31.147Z,38.16
2018-04-22T11:32:00.263Z,37.97
2018-04-22T11:34:29.374Z,39.31
2018-04-22T11:36:59.297Z,39.29
2018-04-22T11:39:29.296Z,36.29
2018-04-22T11:41:58.721Z,37.11
2018-04-22T11:44:28.583Z,36.50
2018-04-22T11:46:57.720Z,35.50
2018-04-22T11:49:26.831Z,35.72
2018-04-22T11:51:55.950Z,36.07
2018-04-22T11:54:25.057Z,35.60
2018-04-22T11:56:54.235Z,35.45
2018-04-22T11:59:23.496Z,36.11
2018-04-22T12:01:53.172Z,36.16
2018-04-22T12:04:22.289Z,34.36
2018-04-22T12:06:51.417Z,34.74
2018-04-22T12:09:20.562Z,34.56
2018-04-22T12:11:49.680Z,34.74
2018-04-22T12:14:19.226Z,33.26
2018-04-22T12:16:48.333Z,31.85
2018-04-22T12:19:19.539Z,32.21
2018-04-22T12:21:49.342Z,32.02
2018-04-22T12:24:18.467Z,32.24
2018-04-22T12:26:47.579Z,32.75
2018-04-22T12:29:16.692Z,31.76
2018-04-22T12:31:46.589Z,30.68
2018-04-22T12:34:15.719Z,32.95
2018-04-22T12:36:45.597Z,31.30
2018-04-22T12:39:14.730Z,31.38
2018-04-22T12:41:43.842Z,30.40
2018-04-22T12:44:13.684Z,31.06
2018-04-22T12:46:42.802Z,31.27
2018-04-22T12:49:11.904Z,29.02
2018-04-22T12:51:41.037Z,28.91
2018-04-22T12:54:10.948Z,27.66
2018-04-22T12:56:40.086Z,27.41
2018-04-22T12:59:09.187Z,28.27
2018-04-22T13:01:38.328Z,29.70
2018-04-22T13:04:07.725Z,28.26
2018-04-22T13:06:37.635Z,28.86
2018-04-22T13:09:06.746Z,27.46
2018-04-22T13:11:36.188Z,27.57
2018-04-22T13:14:05.347Z,28.53
2018-04-22T13:16:34.473Z,28.30
2018-04-22T13:19:03.590Z,27.66
2018-04-22T13:21:32.717Z,30.10
2018-04-22T13:24:01.876Z,29.78
2018-04-22T13:26:32.439Z,29.10
2018-04-22T13:29:01.563Z,29.63
2018-04-22T13:31:30.660Z,27.57
2018-04-22T13:33:59.792Z,28.10
2018-04-22T13:36:29.801Z,27.78
2018-04-22T13:38:59.002Z,28.23
2018-04-22T13:41:28.821Z,27.06
2018-04-22T13:43:58.892Z,26.24
2018-04-22T13:46:28.769Z,27.95
2018-04-22T13:48:57.917Z,26.78
2018-04-22T13:51:27.824Z,27.33
2018-04-22T13:53:57.732Z,27.10
2018-04-22T13:56:27.859Z,27.16
2018-04-22T13:58:57.818Z,27.84
2018-04-22T14:01:26.922Z,27.29
2018-04-22T14:03:56.035Z,26.67
2018-04-22T14:06:26.267Z,26.91
2018-04-22T14:08:55.401Z,27.93
2018-04-22T14:11:24.521Z,27.46
2018-04-22T14:13:53.672Z,26.88
2018-04-22T14:16:23.584Z,26.31
2018-04-22T14:18:52.678Z,26.37
2018-04-22T14:21:21.819Z,27.40
2018-04-22T14:23:50.946Z,26.08
2018-04-22T14:26:20.130Z,26.27
2018-04-22T14:28:49.695Z,27.59
2018-04-22T14:31:18.809Z,28.37
2018-04-22T14:33:47.930Z,28.09
2018-04-22T14:36:17.079Z,28.20
2018-04-22T14:38:46.982Z,27.62
2018-04-22T14:41:16.128Z,27.67
2018-04-22T14:44:03.671Z,28.37
2018-04-22T14:46:32.830Z,28.30
2018-04-22T14:49:06.712Z,27.98
2018-04-22T14:51:35.780Z,27.63
2018-04-22T14:54:04.964Z,27.36
2018-04-22T14:56:34.124Z,27.77
2018-04-22T14:59:03.239Z,27.03
2018-04-22T15:01:32.360Z,27.06
2018-04-22T15:04:01.525Z,26.78
2018-04-22T15:06:30.605Z,28.28
2018-04-22T15:08:59.723Z,27.98
2018-04-22T15:11:28.824Z,28.61
2018-04-22T15:13:57.972Z,27.22
2018-04-22T15:16:28.491Z,27.27
2018-04-22T15:18:57.613Z,28.49
2018-04-22T15:21:26.743Z,30.29
2018-04-22T15:23:55.858Z,29.14
2018-04-22T15:26:24.988Z,27.98
2018-04-22T15:28:54.998Z,28.18
2018-04-22T15:31:24.136Z,27.72
2018-04-22T15:33:53.262Z,27.68
2018-04-22T15:36:22.406Z,29.47
2018-04-22T15:38:51.733Z,30.17
2018-04-22T15:41:20.879Z,31.49
2018-04-22T15:43:50.260Z,32.06
2018-04-22T15:46:19.383Z,31.74
2018-04-22T15:48:48.582Z,31.60
2018-04-22T15:51:17.697Z,31.69
2018-04-22T15:53:46.856Z,32.53
2018-04-22T15:56:15.989Z,33.28
2018-04-22T15:58:45.141Z,33.83
2018-04-22T16:01:14.248Z,34.39
2018-04-22T16:03:43.383Z,34.03
2018-04-22T16:06:12.510Z,34.28
2018-04-22T16:08:41.618Z,35.17
2018-04-22T16:11:12.049Z,34.64
2018-04-22T16:13:41.953Z,31.53
2018-04-22T16:16:11.971Z,32.07
2018-04-22T16:18:41.068Z,32.29
2018-04-22T16:21:10.219Z,32.27
2018-04-22T16:23:39.302Z,32.45
2018-04-22T16:26:09.224Z,33.70
2018-04-22T16:28:38.307Z,32.68
2018-04-22T16:31:07.462Z,32.28
2018-04-22T16:33:37.358Z,33.29
2018-04-22T16:36:06.495Z,32.73
2018-04-22T16:38:35.605Z,32.70
2018-04-22T16:41:05.562Z,31.80
2018-04-22T16:43:35.419Z,31.15
2018-04-22T16:46:04.544Z,33.09
2018-04-22T16:48:33.672Z,32.50
2018-04-22T16:51:02.817Z,31.80
2018-04-22T16:53:31.957Z,32.53
2018-04-22T16:56:01.111Z,31.81
2018-04-22T16:58:30.228Z,32.17
2018-04-22T17:00:59.352Z,32.12
2018-04-22T17:03:28.479Z,31.91
2018-04-22T17:05:57.598Z,31.95
2018-04-22T17:08:26.723Z,32.86
2018-04-22T17:10:55.836Z,32.71
2018-04-22T17:13:24.982Z,32.57
2018-04-22T17:15:54.115Z,32.06
2018-04-22T17:18:23.252Z,32.16
2018-04-22T17:20:52.374Z,32.35
2018-04-22T17:23:21.515Z,32.68
2018-04-22T17:25:51.382Z,31.44
2018-04-22T17:28:20.518Z,32.24
2018-04-22T17:30:50.444Z,32.54
2018-04-22T17:33:20.345Z,33.26
2018-04-22T17:35:49.473Z,32.59
2018-04-22T17:38:18.593Z,32.94
2018-04-22T17:40:47.721Z,32.06
2018-04-22T17:43:16.850Z,32.64
2018-04-22T17:45:45.980Z,32.25
2018-04-22T17:48:15.878Z,32.49
2018-04-22T17:50:44.994Z,32.15
2018-04-22T17:53:14.105Z,32.26
2018-04-22T17:55:43.254Z,32.53
2018-04-22T17:58:12.387Z,32.65
2018-04-22T18:00:41.552Z,32.62
2018-04-22T18:03:11.899Z,32.65
2018-04-22T18:05:41.052Z,32.87
2018-04-22T18:08:12.185Z,32.80
2018-04-22T18:10:41.301Z,32.76
2018-04-22T18:13:11.321Z,32.65
2018-04-22T18:15:40.464Z,32.64
2018-04-22T18:18:10.517Z,32.61
2018-04-22T18:20:40.391Z,32.82
2018-04-22T18:23:10.336Z,32.47
2018-04-22T18:25:39.450Z,32.65
2018-04-22T18:28:09.340Z,32.70
2018-04-22T18:30:38.578Z,32.81
2018-04-22T18:33:08.492Z,33.44
2018-04-22T18:35:37.702Z,32.16
2018-04-22T18:38:06.893Z,32.27
2018-04-22T18:40:36.058Z,32.24
2018-04-22T18:43:05.186Z,32.72
2018-04-22T18:45:34.325Z,32.33
2018-04-22T18:48:03.444Z,32.45
2018-04-22T18:50:32.585Z,32.09
2018-04-22T18:53:01.693Z,32.18
2018-04-22T18:55:31.611Z,32.25
2018-04-22T18:58:00.737Z,32.18
2018-04-22T19:00:29.897Z,32.76
2018-04-22T19:02:59.876Z,34.86
2018-04-22T19:05:28.980Z,35.08
2018-04-22T19:07:58.117Z,35.99
2018-04-22T19:10:27.216Z,35.12
2018-04-22T19:12:56.349Z,34.47
2018-04-22T19:15:25.509Z,34.45
2018-04-22T19:17:54.641Z,34.45
2018-04-22T19:20:23.765Z,34.42
2018-04-22T19:22:53.632Z,34.57
2018-04-22T19:25:22.764Z,34.49
2018-04-22T19:27:52.669Z,34.58
2018-04-22T19:30:21.792Z,34.34
2018-04-22T19:32:51.686Z,34.32
2018-04-22T19:35:21.620Z,34.29
2018-04-22T19:37:50.718Z,34.01
2018-04-22T19:40:19.931Z,34.12
2018-04-22T19:42:49.085Z,34.09
2018-04-22T19:45:18.247Z,33.67
2018-04-22T19:47:48.147Z,33.85
2018-04-22T19:50:18.060Z,34.82
2018-04-22T19:52:47.173Z,34.56
2018-04-22T19:55:16.320Z,34.37
2018-04-22T19:57:46.963Z,34.42
2018-04-22T20:00:16.096Z,36.50
2018-04-22T20:02:45.539Z,36.37
2018-04-22T20:05:14.688Z,35.08
2018-04-22T20:07:43.820Z,35.92
2018-04-22T20:10:12.945Z,35.00
2018-04-22T20:12:42.129Z,35.08
2018-04-22T20:15:12.164Z,34.34
2018-04-22T20:17:41.292Z,34.28
2018-04-22T20:20:10.425Z,33.91
2018-04-22T20:22:39.563Z,33.64
2018-04-22T20:25:09.488Z,33.38
2018-04-22T20:27:39.365Z,33.66
2018-04-22T20:30:09.424Z,33.75
2018-04-22T20:32:39.306Z,33.59
2018-04-22T20:35:09.208Z,33.47
2018-04-22T20:37:38.311Z,33.69
2018-04-22T20:40:07.676Z,33.80
2018-04-22T20:42:36.811Z,33.37
2018-04-22T20:45:05.927Z,33.29
2018-04-22T20:47:35.348Z,33.52
2018-04-22T20:50:05.255Z,34.34
2018-04-22T20:52:34.381Z,34.44
2018-04-22T20:55:04.242Z,36.42
2018-04-22T20:57:34.125Z,36.47
2018-04-22T21:00:03.252Z,34.53
2018-04-22T21:02:32.380Z,34.23
2018-04-22T21:05:01.498Z,33.79
2018-04-22T21:07:30.644Z,33.82
2018-04-22T21:10:00.533Z,34.09
2018-04-22T21:12:29.645Z,35.90
2018-04-22T21:14:58.759Z,35.64
2018-04-22T21:17:27.900Z,35.05
2018-04-22T21:19:57.004Z,36.18
2018-04-22T21:22:26.136Z,34.39
2018-04-22T21:24:56.059Z,34.42
2018-04-22T21:27:25.946Z,34.51
2018-04-22T21:29:55.067Z,34.47
2018-04-22T21:32:24.939Z,36.23
2018-04-22T21:34:54.049Z,36.16
2018-04-22T21:37:23.185Z,35.04
2018-04-22T21:39:53.066Z,35.13
2018-04-22T21:42:22.185Z,35.12
2018-04-22T21:44:52.080Z,35.05
2018-04-22T21:47:21.202Z,35.21
2018-04-22T21:49:51.087Z,35.98
2018-04-22T21:52:20.195Z,35.36
2018-04-22T21:54:49.320Z,35.25
2018-04-22T21:57:18.925Z,35.53
2018-04-22T21:59:48.815Z,35.37
2018-04-22T22:02:17.931Z,35.44
2018-04-22T22:04:47.034Z,35.79
2018-04-22T22:07:16.186Z,36.21
2018-04-22T22:09:45.344Z,36.72
2018-04-22T22:12:14.455Z,36.50
2018-04-22T22:14:43.571Z,36.66
2018-04-22T22:17:12.661Z,36.45
2018-04-22T22:19:41.773Z,36.50
2018-04-22T22:22:10.915Z,36.96
2018-04-22T22:24:40.031Z,36.77
2018-04-22T22:27:09.140Z,36.47
2018-04-22T22:29:38.299Z,38.14
2018-04-22T22:32:07.403Z,40.94
2018-04-22T22:34:36.532Z,41.61
2018-04-22T22:37:05.627Z,40.26
2018-04-22T22:39:34.767Z,40.57
2018-04-22T22:42:03.872Z,39.52
2018-04-22T22:44:32.993Z,38.93
2018-04-22T22:47:02.090Z,38.17
2018-04-22T22:49:31.220Z,38.10
2018-04-22T22:52:00.315Z,38.28
2018-04-22T22:54:29.406Z,38.36
2018-04-22T22:56:58.534Z,38.71
2018-04-22T22:59:28.392Z,38.82
2018-04-22T23:01:57.505Z,40.02
2018-04-22T23:04:26.604Z,39.83
2018-04-22T23:06:55.732Z,39.70
2018-04-22T23:09:24.850Z,40.46
2018-04-22T23:11:54.002Z,41.52
2018-04-22T23:14:23.897Z,42.73
2018-04-22T23:16:52.993Z,45.14
2018-04-22T23:19:22.117Z,45.80
2018-04-22T23:21:51.226Z,45.41
2018-04-22T23:24:20.333Z,45.52
2018-04-22T23:26:50.197Z,46.04
2018-04-22T23:29:19.319Z,46.49
2018-04-22T23:31:48.901Z,44.53
2018-04-22T23:34:18.019Z,43.07
2018-04-22T23:36:47.126Z,42.47
2018-04-22T23:39:16.264Z,42.03
2018-04-22T23:41:45.363Z,41.25
2018-04-22T23:44:14.496Z,40.44
2018-04-22T23:46:44.361Z,40.16
2018-04-22T23:49:13.482Z,40.25
2018-04-22T23:51:42.576Z,40.78
2018-04-22T23:54:12.393Z,42.06
2018-04-22T23:56:41.854Z,41.42
2018-04-22T23:59:12.221Z,41.76
